Terminal Aerodrome Forecast
Issued by NWS

Home | Current Version | Previous Version | Text Only | Print | Product List | Glossary On
Versions: 1 2 3 4 5 6 7 8 9 10 11 12 13 14
000
FTUS42 TJSJ 020010 RRA
TAFIST
TAF
TIST 020010Z 0200/0224 10009KT P6SM VCSH SCT025 BKN050 BKN120
      TEMPO 0200/0202 VRB12G19KT 5SM SHRA BKN025
     FM020230 08006KT P6SM -RA FEW025 SCT050 SCT120
     FM021300 12012KT P6SM FEW025 SCT050=

USA.gov is the U.S. government's official web portal to all federal, state and local government web resources and services.